createdAt,value
2018-04-27T00:00:42.151Z,19.18
2018-04-27T00:01:42.087Z,19.08
2018-04-27T00:02:42.024Z,19.11
2018-04-27T00:03:41.957Z,19.02
2018-04-27T00:04:41.912Z,18.98
2018-04-27T00:05:41.836Z,18.98
2018-04-27T00:06:41.786Z,18.99
2018-04-27T00:07:41.723Z,18.92
2018-04-27T00:08:41.641Z,18.98
2018-04-27T00:09:41.571Z,18.94
2018-04-27T00:10:41.524Z,19.02
2018-04-27T00:11:41.457Z,18.94
2018-04-27T00:12:41.395Z,18.94
2018-04-27T00:13:41.330Z,18.87
2018-04-27T00:14:41.279Z,18.80
2018-04-27T00:15:41.205Z,18.81
2018-04-27T00:16:41.122Z,18.81
2018-04-27T00:17:41.088Z,18.82
2018-04-27T00:18:41.010Z,18.85
2018-04-27T00:19:40.930Z,18.78
2018-04-27T00:20:40.889Z,18.85
2018-04-27T00:21:40.806Z,18.82
2018-04-27T00:22:40.755Z,18.90
2018-04-27T00:23:40.691Z,18.73
2018-04-27T00:24:40.620Z,18.81
2018-04-27T00:25:40.549Z,18.80
2018-04-27T00:26:40.477Z,18.76
2018-04-27T00:27:40.448Z,18.85
2018-04-27T00:28:40.365Z,18.81
2018-04-27T00:29:40.285Z,18.85
2018-04-27T00:30:40.242Z,18.87
2018-04-27T00:31:40.159Z,18.82
2018-04-27T00:32:40.093Z,18.69
2018-04-27T00:33:40.027Z,18.72
2018-04-27T00:34:39.975Z,18.72
2018-04-27T00:35:39.909Z,18.72
2018-04-27T00:36:39.864Z,18.73
2018-04-27T00:37:39.786Z,18.75
2018-04-27T00:38:39.713Z,18.73
2018-04-27T00:39:39.645Z,18.75
2018-04-27T00:40:39.598Z,18.78
2018-04-27T00:41:39.535Z,18.78
2018-04-27T00:42:39.449Z,18.73
2018-04-27T00:43:39.384Z,18.70
2018-04-27T00:44:39.320Z,18.84
2018-04-27T00:45:39.256Z,18.73
2018-04-27T00:46:39.211Z,18.76
2018-04-27T00:47:39.145Z,18.76
2018-04-27T00:48:39.067Z,18.76
2018-04-27T00:49:39.004Z,18.82
2018-04-27T00:50:38.934Z,18.76
2018-04-27T00:51:38.891Z,18.69
2018-04-27T00:52:38.808Z,18.76
2018-04-27T00:53:38.755Z,18.60
2018-04-27T00:54:38.671Z,18.67
2018-04-27T00:55:38.616Z,18.65
2018-04-27T00:56:38.543Z,18.65
2018-04-27T00:57:38.486Z,18.54
2018-04-27T00:58:38.425Z,18.57
2018-04-27T00:59:38.350Z,18.41
2018-04-27T01:00:38.296Z,18.37
2018-04-27T01:01:38.235Z,18.41
2018-04-27T01:02:38.160Z,18.45
2018-04-27T01:03:38.096Z,18.45
2018-04-27T01:04:38.048Z,18.29
2018-04-27T01:05:37.997Z,18.14
2018-04-27T01:06:37.914Z,18.08
2018-04-27T01:07:37.857Z,18.10
2018-04-27T01:08:37.769Z,17.90
2018-04-27T01:09:37.715Z,17.81
2018-04-27T01:10:37.660Z,17.82
2018-04-27T01:11:37.584Z,17.78
2018-04-27T01:12:37.530Z,17.84
2018-04-27T01:13:37.475Z,17.82
2018-04-27T01:14:37.383Z,17.82
2018-04-27T01:15:37.335Z,17.75
2018-04-27T01:16:37.251Z,17.84
2018-04-27T01:17:37.212Z,17.92
2018-04-27T01:18:37.127Z,17.95
2018-04-27T01:19:37.078Z,17.95
2018-04-27T01:20:37.010Z,17.99
2018-04-27T01:21:36.933Z,18.10
2018-04-27T01:22:36.869Z,18.00
2018-04-27T01:23:36.804Z,17.99
2018-04-27T01:24:36.759Z,18.11
2018-04-27T01:25:36.674Z,18.05
2018-04-27T01:26:36.633Z,18.03
2018-04-27T01:27:36.562Z,18.00
2018-04-27T01:28:36.477Z,18.18
2018-04-27T01:29:36.408Z,18.14
2018-04-27T01:30:36.361Z,18.21
2018-04-27T01:31:36.289Z,18.21
2018-04-27T01:32:36.313Z,18.11
2018-04-27T01:33:36.163Z,18.14
2018-04-27T01:34:36.107Z,18.18
2018-04-27T01:35:36.022Z,18.14
2018-04-27T01:36:35.963Z,18.11
2018-04-27T01:37:35.910Z,18.12
2018-04-27T01:38:35.832Z,18.03
2018-04-27T01:39:35.764Z,18.05
2018-04-27T01:40:35.711Z,18.07
2018-04-27T01:41:35.631Z,18.03
2018-04-27T01:42:35.561Z,18.20
2018-04-27T01:43:35.501Z,18.14
2018-04-27T01:44:35.432Z,18.15
2018-04-27T01:45:35.380Z,18.15
2018-04-27T01:46:35.308Z,18.15
2018-04-27T01:47:35.259Z,18.07
2018-04-27T01:48:35.178Z,18.18
2018-04-27T01:49:35.128Z,18.07
2018-04-27T01:50:35.072Z,18.18
2018-04-27T01:51:34.985Z,18.15
2018-04-27T01:52:34.958Z,18.23
2018-04-27T01:53:34.977Z,18.20
2018-04-27T01:54:34.893Z,18.18
2018-04-27T01:55:34.733Z,18.12
2018-04-27T01:56:34.696Z,18.10
2018-04-27T01:57:34.608Z,18.15
2018-04-27T01:58:34.535Z,18.10
2018-04-27T01:59:34.511Z,18.15
2018-04-27T02:00:34.419Z,18.05
2018-04-27T02:01:34.335Z,18.03
2018-04-27T02:02:34.278Z,18.02
2018-04-27T02:03:34.218Z,18.03
2018-04-27T02:04:34.160Z,18.03
2018-04-27T02:05:34.075Z,18.15
2018-04-27T02:06:34.024Z,18.08
2018-04-27T02:07:33.942Z,17.95
2018-04-27T02:08:33.881Z,17.92
2018-04-27T02:09:33.829Z,17.84
2018-04-27T02:10:33.749Z,17.90
2018-04-27T02:11:33.712Z,17.95
2018-04-27T02:12:33.617Z,17.79
2018-04-27T02:13:33.572Z,17.77
2018-04-27T02:14:33.489Z,17.86
2018-04-27T02:15:33.429Z,17.78
2018-04-27T02:16:33.376Z,17.84
2018-04-27T02:17:33.321Z,17.89
2018-04-27T02:18:33.230Z,17.87
2018-04-27T02:19:33.167Z,17.87
2018-04-27T02:20:33.097Z,17.95
2018-04-27T02:21:33.056Z,18.00
2018-04-27T02:22:32.982Z,17.95
2018-04-27T02:23:32.930Z,17.89
2018-04-27T02:24:32.854Z,17.87
2018-04-27T02:25:32.788Z,17.82
2018-04-27T02:26:32.715Z,17.86
2018-04-27T02:27:32.645Z,17.79
2018-04-27T02:28:32.586Z,17.87
2018-04-27T02:29:32.509Z,17.89
2018-04-27T02:30:32.467Z,17.93
2018-04-27T02:31:32.377Z,17.95
2018-04-27T02:32:32.345Z,17.81
2018-04-27T02:33:32.250Z,17.75
2018-04-27T02:34:32.219Z,17.64
2018-04-27T02:35:32.145Z,17.75
2018-04-27T02:36:32.071Z,17.71
2018-04-27T02:37:32.006Z,17.62
2018-04-27T02:38:31.934Z,17.68
2018-04-27T02:39:31.877Z,17.66
2018-04-27T02:40:31.819Z,17.56
2018-04-27T02:41:31.755Z,17.66
2018-04-27T02:42:31.683Z,17.52
2018-04-27T02:43:31.622Z,17.51
2018-04-27T02:44:31.564Z,17.46
2018-04-27T02:45:31.473Z,17.55
2018-04-27T02:46:31.446Z,17.52
2018-04-27T02:47:31.347Z,17.71
2018-04-27T02:48:31.277Z,17.78
2018-04-27T02:49:31.225Z,17.70
2018-04-27T02:50:31.148Z,17.66
2018-04-27T02:51:31.091Z,17.63
2018-04-27T02:52:31.037Z,17.64
2018-04-27T02:53:30.982Z,17.62
2018-04-27T02:54:30.904Z,17.68
2018-04-27T02:55:30.840Z,17.62
2018-04-27T02:56:30.755Z,17.55
2018-04-27T02:57:30.705Z,17.63
2018-04-27T02:58:30.658Z,17.64
2018-04-27T02:59:30.557Z,17.71
2018-04-27T03:00:30.517Z,17.59
2018-04-27T03:01:30.452Z,17.48
2018-04-27T03:02:30.375Z,17.55
2018-04-27T03:03:30.298Z,17.46
2018-04-27T03:04:30.273Z,17.51
2018-04-27T03:05:30.190Z,17.66
2018-04-27T03:06:30.096Z,17.63
2018-04-27T03:07:30.040Z,17.59
2018-04-27T03:08:29.972Z,17.68
2018-04-27T03:09:29.920Z,17.72
2018-04-27T03:10:29.860Z,17.64
2018-04-27T03:11:29.800Z,17.64
2018-04-27T03:12:29.731Z,17.56
2018-04-27T03:13:29.663Z,17.56
2018-04-27T03:14:29.600Z,17.46
2018-04-27T03:15:29.534Z,17.03
2018-04-27T03:16:29.470Z,16.89
2018-04-27T03:17:29.381Z,17.01
2018-04-27T03:18:29.322Z,16.94
2018-04-27T03:19:29.252Z,17.06
2018-04-27T03:20:29.191Z,17.08
2018-04-27T03:21:29.137Z,17.06
2018-04-27T03:22:29.070Z,17.07
2018-04-27T03:23:29.016Z,17.06
2018-04-27T03:24:28.935Z,17.06
2018-04-27T03:25:28.901Z,17.06
2018-04-27T03:26:28.829Z,17.08
2018-04-27T03:27:28.742Z,17.03
2018-04-27T03:28:28.696Z,17.15
2018-04-27T03:29:28.606Z,17.14
2018-04-27T03:30:28.567Z,17.03
2018-04-27T03:31:28.501Z,17.04
2018-04-27T03:32:28.419Z,17.06
2018-04-27T03:33:28.346Z,17.12
2018-04-27T03:34:28.288Z,17.12
2018-04-27T03:35:28.214Z,17.07
2018-04-27T03:36:28.145Z,17.11
2018-04-27T03:37:28.085Z,17.11
2018-04-27T03:38:28.026Z,16.93
2018-04-27T03:39:27.966Z,17.07
2018-04-27T03:40:27.886Z,17.11
2018-04-27T03:41:27.848Z,17.19
2018-04-27T03:42:27.744Z,17.06
2018-04-27T03:43:27.683Z,17.07
2018-04-27T03:44:27.644Z,17.14
2018-04-27T03:45:27.620Z,17.06
2018-04-27T03:46:27.520Z,17.11
2018-04-27T03:47:27.417Z,17.03
2018-04-27T03:48:27.370Z,17.12
2018-04-27T03:49:27.306Z,17.18
2018-04-27T03:50:27.249Z,17.19
2018-04-27T03:51:27.157Z,17.19
2018-04-27T03:52:27.123Z,17.22
2018-04-27T03:53:27.031Z,17.19
2018-04-27T03:54:26.987Z,17.18
2018-04-27T03:55:26.903Z,17.21
2018-04-27T03:56:26.847Z,17.23
2018-04-27T03:57:26.781Z,17.21
2018-04-27T03:58:26.715Z,17.19
2018-04-27T03:59:26.652Z,17.23
2018-04-27T04:00:26.597Z,17.30
2018-04-27T04:01:26.505Z,17.22
2018-04-27T04:02:26.443Z,17.21
2018-04-27T04:03:26.391Z,17.22
2018-04-27T04:04:26.329Z,17.18
2018-04-27T04:05:26.250Z,17.19
2018-04-27T04:06:26.175Z,17.23
2018-04-27T04:07:26.109Z,17.19
2018-04-27T04:08:26.076Z,17.19
2018-04-27T04:09:25.979Z,17.12
2018-04-27T04:10:25.914Z,16.94
2018-04-27T04:11:25.848Z,16.94
2018-04-27T04:12:25.808Z,16.94
2018-04-27T04:13:25.736Z,16.96
2018-04-27T04:14:25.655Z,16.97
2018-04-27T04:15:25.602Z,17.04
2018-04-27T04:16:25.523Z,16.91
2018-04-27T04:17:25.458Z,16.75
2018-04-27T04:18:25.401Z,16.71
2018-04-27T04:19:25.353Z,16.57
2018-04-27T04:20:25.279Z,16.41
2018-04-27T04:21:25.207Z,16.38
2018-04-27T04:22:25.120Z,16.30
2018-04-27T04:23:25.087Z,16.28
2018-04-27T04:24:25.018Z,16.34
2018-04-27T04:25:24.942Z,16.42
2018-04-27T04:26:24.870Z,16.53
2018-04-27T04:27:24.821Z,16.68
2018-04-27T04:28:24.748Z,16.73
2018-04-27T04:29:24.679Z,16.73
2018-04-27T04:30:24.631Z,16.70
2018-04-27T04:31:24.563Z,16.38
2018-04-27T04:32:24.502Z,16.27
2018-04-27T04:33:24.404Z,16.25
2018-04-27T04:34:24.347Z,16.28
2018-04-27T04:35:24.278Z,16.43
2018-04-27T04:36:24.199Z,16.56
2018-04-27T04:37:24.153Z,16.57
2018-04-27T04:38:24.172Z,16.68
2018-04-27T04:39:24.017Z,16.60
2018-04-27T04:40:23.959Z,16.78
2018-04-27T04:41:23.896Z,16.83
2018-04-27T04:42:23.807Z,16.68
2018-04-27T04:43:23.773Z,16.73
2018-04-27T04:44:23.693Z,16.85
2018-04-27T04:45:23.614Z,16.79
2018-04-27T04:46:23.543Z,16.86
2018-04-27T04:47:23.511Z,16.85
2018-04-27T04:48:23.429Z,16.88
2018-04-27T04:49:23.373Z,16.94
2018-04-27T04:50:23.295Z,16.89
2018-04-27T04:51:23.215Z,16.64
2018-04-27T04:52:23.231Z,16.42
2018-04-27T04:53:23.102Z,16.39
2018-04-27T04:54:23.040Z,16.35
2018-04-27T04:55:22.958Z,16.34
2018-04-27T04:56:22.904Z,16.15
2018-04-27T04:57:22.858Z,16.15
2018-04-27T04:58:22.774Z,16.15
2018-04-27T04:59:22.685Z,16.15
2018-04-27T05:00:22.624Z,16.31
2018-04-27T05:01:22.582Z,16.33
2018-04-27T05:02:22.498Z,16.48
2018-04-27T05:03:22.437Z,16.57
2018-04-27T05:04:22.368Z,16.56
2018-04-27T05:05:22.316Z,16.35
2018-04-27T05:06:22.248Z,16.38
2018-04-27T05:07:22.184Z,16.35
2018-04-27T05:08:22.110Z,16.48
2018-04-27T05:09:22.050Z,16.56
2018-04-27T05:10:21.963Z,16.64
2018-04-27T05:11:21.931Z,16.63
2018-04-27T05:12:21.854Z,16.66
2018-04-27T05:13:21.788Z,16.46
2018-04-27T05:14:21.718Z,16.33
2018-04-27T05:15:21.664Z,16.23
2018-04-27T05:16:21.586Z,16.11
2018-04-27T05:17:21.509Z,16.15
2018-04-27T05:18:21.498Z,16.38
2018-04-27T05:19:21.375Z,16.42
2018-04-27T05:20:21.329Z,16.49
2018-04-27T05:21:21.264Z,16.56
2018-04-27T05:22:21.177Z,16.56
2018-04-27T05:23:21.117Z,16.52
2018-04-27T05:24:21.143Z,16.52
2018-04-27T05:25:21.005Z,16.61
2018-04-27T05:26:20.930Z,16.71
2018-04-27T05:27:20.853Z,16.76
2018-04-27T05:28:20.797Z,16.70
2018-04-27T05:29:20.716Z,16.85
2018-04-27T05:30:20.647Z,16.85
2018-04-27T05:31:20.603Z,16.96
2018-04-27T05:32:20.546Z,16.93
2018-04-27T05:33:20.460Z,16.96
2018-04-27T05:34:20.394Z,16.97
2018-04-27T05:35:20.337Z,16.97
2018-04-27T05:36:20.261Z,16.98
2018-04-27T05:37:20.194Z,16.98
2018-04-27T05:38:20.148Z,16.96
2018-04-27T05:39:20.080Z,16.97
2018-04-27T05:40:21.325Z,16.97
2018-04-27T05:41:19.946Z,17.06
2018-04-27T05:42:19.889Z,17.04
2018-04-27T05:43:19.796Z,17.16
2018-04-27T05:44:19.727Z,17.14
2018-04-27T05:45:19.694Z,17.14
2018-04-27T05:46:19.614Z,17.11
2018-04-27T05:47:19.536Z,17.14
2018-04-27T05:48:19.526Z,17.00
2018-04-27T05:49:19.415Z,17.00
2018-04-27T05:50:19.347Z,16.75
2018-04-27T05:51:19.277Z,16.64
2018-04-27T05:52:19.229Z,16.56
2018-04-27T05:53:19.176Z,16.68
2018-04-27T05:54:19.096Z,16.76
2018-04-27T05:55:19.017Z,16.78
2018-04-27T05:56:18.965Z,16.75
2018-04-27T05:57:18.927Z,16.89
2018-04-27T05:58:18.847Z,16.86
2018-04-27T05:59:18.750Z,16.78
2018-04-27T06:00:18.694Z,16.45
2018-04-27T06:01:18.624Z,16.42
2018-04-27T06:02:18.574Z,16.20
2018-04-27T06:03:18.496Z,16.17
2018-04-27T06:04:18.418Z,15.84
2018-04-27T06:05:18.356Z,15.82
2018-04-27T06:06:18.294Z,15.97
2018-04-27T06:07:18.226Z,15.94
2018-04-27T06:08:18.220Z,16.11
2018-04-27T06:09:18.118Z,16.17
2018-04-27T06:10:18.024Z,16.23
2018-04-27T06:11:17.975Z,16.31
2018-04-27T06:12:17.914Z,16.45
2018-04-27T06:13:17.857Z,16.60
2018-04-27T06:14:17.767Z,16.66
2018-04-27T06:15:17.717Z,16.73
2018-04-27T06:16:17.653Z,16.70
2018-04-27T06:17:17.588Z,16.81
2018-04-27T06:18:17.519Z,16.85
2018-04-27T06:19:17.453Z,16.94
2018-04-27T06:20:17.370Z,16.97
2018-04-27T06:21:17.304Z,17.07
2018-04-27T06:22:17.248Z,16.97
2018-04-27T06:23:17.180Z,17.00
2018-04-27T06:24:17.112Z,17.07
2018-04-27T06:25:17.070Z,17.15
2018-04-27T06:26:16.983Z,17.07
2018-04-27T06:27:16.926Z,17.14
2018-04-27T06:28:16.858Z,17.18
2018-04-27T06:29:16.789Z,17.15
2018-04-27T06:30:16.735Z,17.12
2018-04-27T06:31:16.658Z,17.16
2018-04-27T06:32:16.605Z,17.38
2018-04-27T06:33:16.549Z,17.46
2018-04-27T06:34:16.479Z,17.62
2018-04-27T06:35:16.395Z,17.71
2018-04-27T06:36:16.336Z,17.64
2018-04-27T06:37:16.264Z,17.59
2018-04-27T06:38:16.198Z,17.66
2018-04-27T06:39:16.153Z,17.62
2018-04-27T06:40:16.165Z,17.51
2018-04-27T06:41:16.025Z,17.38
2018-04-27T06:42:15.955Z,17.51
2018-04-27T06:43:15.901Z,17.55
2018-04-27T06:44:15.808Z,17.62
2018-04-27T06:45:15.764Z,17.79
2018-04-27T06:46:15.698Z,17.90
2018-04-27T06:47:15.645Z,17.90
2018-04-27T06:48:15.556Z,17.97
2018-04-27T06:49:15.493Z,17.99
2018-04-27T06:50:15.447Z,18.03
2018-04-27T06:51:15.366Z,17.97
2018-04-27T06:52:15.297Z,18.10
2018-04-27T06:53:15.252Z,18.20
2018-04-27T06:54:15.169Z,18.17
2018-04-27T06:55:15.127Z,18.21
2018-04-27T06:56:15.059Z,18.21
2018-04-27T06:57:14.994Z,18.26
2018-04-27T06:58:14.924Z,18.23
2018-04-27T06:59:14.871Z,18.17
2018-04-27T07:00:14.816Z,18.15
2018-04-27T07:01:14.732Z,18.25
2018-04-27T07:02:14.676Z,18.33
2018-04-27T07:03:14.632Z,18.21
2018-04-27T07:04:14.551Z,18.17
2018-04-27T07:05:14.484Z,18.26
2018-04-27T07:06:14.417Z,18.37
2018-04-27T07:07:14.341Z,18.35
2018-04-27T07:08:14.293Z,18.30
2018-04-27T07:09:14.228Z,18.32
2018-04-27T07:10:14.145Z,18.42
2018-04-27T07:11:14.105Z,18.51
2018-04-27T07:12:14.012Z,18.36
2018-04-27T07:13:13.950Z,18.45
2018-04-27T07:14:13.913Z,18.42
2018-04-27T07:15:13.822Z,18.45
2018-04-27T07:16:13.773Z,18.48
2018-04-27T07:17:13.741Z,18.51
2018-04-27T07:18:13.649Z,18.52
2018-04-27T07:19:13.591Z,18.62
2018-04-27T07:20:13.508Z,18.73
2018-04-27T07:21:13.473Z,18.63
2018-04-27T07:22:13.382Z,18.69
2018-04-27T07:23:13.333Z,18.76
2018-04-27T07:24:13.277Z,18.81
2018-04-27T07:25:13.196Z,18.82
2018-04-27T07:26:13.154Z,18.85
2018-04-27T07:27:13.068Z,18.85
2018-04-27T07:28:13.002Z,18.94
2018-04-27T07:29:12.957Z,18.98
2018-04-27T07:30:12.876Z,19.00
2018-04-27T07:31:12.816Z,18.95
2018-04-27T07:32:12.777Z,19.06
2018-04-27T07:33:12.705Z,18.94
2018-04-27T07:34:12.622Z,19.04
2018-04-27T07:35:12.562Z,19.07
2018-04-27T07:36:12.500Z,19.04
2018-04-27T07:37:12.448Z,19.10
2018-04-27T07:38:12.389Z,19.18
2018-04-27T07:39:12.328Z,19.18
2018-04-27T07:40:12.244Z,19.29
2018-04-27T07:41:12.202Z,19.31
2018-04-27T07:42:12.134Z,19.37
2018-04-27T07:43:12.083Z,18.87
2018-04-27T07:44:12.011Z,18.91
2018-04-27T07:45:12.032Z,18.82
2018-04-27T07:46:11.890Z,18.84
2018-04-27T07:47:11.806Z,18.78
2018-04-27T07:48:11.763Z,18.85
2018-04-27T07:49:11.701Z,19.07
2018-04-27T07:50:11.631Z,19.19
2018-04-27T07:51:11.556Z,19.18
2018-04-27T07:52:11.496Z,19.25
2018-04-27T07:53:11.441Z,19.25
2018-04-27T07:54:11.391Z,19.26
2018-04-27T07:55:11.299Z,19.39
2018-04-27T07:56:11.263Z,19.40
2018-04-27T07:57:11.175Z,19.26
2018-04-27T07:58:11.128Z,19.40
2018-04-27T07:59:11.046Z,19.41
2018-04-27T08:00:10.990Z,19.48
2018-04-27T08:01:10.928Z,19.50
2018-04-27T08:02:10.941Z,19.37
2018-04-27T08:03:10.815Z,19.36
2018-04-27T08:04:10.738Z,19.44
2018-04-27T08:05:10.696Z,19.39
2018-04-27T08:06:10.612Z,19.51
2018-04-27T08:07:10.573Z,19.68
2018-04-27T08:08:10.494Z,19.59
2018-04-27T08:09:10.458Z,19.50
2018-04-27T08:10:10.385Z,19.56
2018-04-27T08:11:10.300Z,19.73
2018-04-27T08:12:10.236Z,19.63
2018-04-27T08:13:10.180Z,19.81
2018-04-27T08:14:10.132Z,19.80
2018-04-27T08:15:10.060Z,19.81
2018-04-27T08:16:10.012Z,19.87
2018-04-27T08:17:09.943Z,19.95
2018-04-27T08:18:09.869Z,20.01
2018-04-27T08:19:09.801Z,19.94
2018-04-27T08:20:09.770Z,20.08
2018-04-27T08:21:09.678Z,20.06
2018-04-27T08:22:09.637Z,20.16
2018-04-27T08:23:09.578Z,20.11
2018-04-27T08:24:09.509Z,20.14
2018-04-27T08:25:09.443Z,19.73
2018-04-27T08:26:09.388Z,19.71
2018-04-27T08:27:09.308Z,19.84
2018-04-27T08:28:09.258Z,19.61
2018-04-27T08:29:09.180Z,19.65
2018-04-27T08:30:09.193Z,19.76
2018-04-27T08:31:09.067Z,19.80
2018-04-27T08:32:09.022Z,19.83
2018-04-27T08:33:08.928Z,19.92
2018-04-27T08:34:08.891Z,19.99
2018-04-27T08:35:08.840Z,20.02
2018-04-27T08:36:08.762Z,19.98
2018-04-27T08:37:08.712Z,20.02
2018-04-27T08:38:08.636Z,20.06
2018-04-27T08:39:08.567Z,20.11
2018-04-27T08:40:08.495Z,20.14
2018-04-27T08:41:08.450Z,19.99
2018-04-27T08:42:08.394Z,20.02
2018-04-27T08:43:08.335Z,19.98
2018-04-27T08:44:08.265Z,20.16
2018-04-27T08:45:08.207Z,20.16
2018-04-27T08:46:08.147Z,20.03
2018-04-27T08:47:08.079Z,19.78
2018-04-27T08:48:08.017Z,19.71
2018-04-27T08:49:07.944Z,19.80
2018-04-27T08:50:07.889Z,19.81
2018-04-27T08:51:07.854Z,19.95
2018-04-27T08:52:07.792Z,19.91
2018-04-27T08:53:07.700Z,20.02
2018-04-27T08:54:07.661Z,20.01
2018-04-27T08:55:07.583Z,20.13
2018-04-27T08:56:07.537Z,19.99
2018-04-27T08:57:07.456Z,20.13
2018-04-27T08:58:07.396Z,20.20
2018-04-27T08:59:07.320Z,20.20
2018-04-27T09:00:07.265Z,20.36
2018-04-27T09:01:07.201Z,20.42
2018-04-27T09:02:07.142Z,20.26
2018-04-27T09:03:07.095Z,20.29
2018-04-27T09:04:07.030Z,20.05
2018-04-27T09:05:06.970Z,20.11
2018-04-27T09:06:06.895Z,20.18
2018-04-27T09:07:06.843Z,20.26
2018-04-27T09:08:06.767Z,20.35
2018-04-27T09:09:06.740Z,20.47
2018-04-27T09:10:06.667Z,20.52
2018-04-27T09:11:06.603Z,20.62
2018-04-27T09:12:06.528Z,20.67
2018-04-27T09:13:06.479Z,20.69
2018-04-27T09:14:06.404Z,20.66
2018-04-27T09:15:06.336Z,20.67
2018-04-27T09:16:06.274Z,20.72
2018-04-27T09:17:06.210Z,20.77
2018-04-27T09:18:06.174Z,20.84
2018-04-27T09:19:06.108Z,20.82
2018-04-27T09:20:06.030Z,20.79
2018-04-27T09:21:05.982Z,20.69
2018-04-27T09:22:05.904Z,20.80
2018-04-27T09:23:05.855Z,20.92
2018-04-27T09:24:05.785Z,20.85
2018-04-27T09:25:05.738Z,20.92
2018-04-27T09:26:05.660Z,20.79
2018-04-27T09:27:05.611Z,20.62
2018-04-27T09:28:05.563Z,20.62
2018-04-27T09:29:05.495Z,20.69
2018-04-27T09:30:05.430Z,20.76
2018-04-27T09:31:05.378Z,20.74
2018-04-27T09:32:05.293Z,20.74
2018-04-27T09:33:05.252Z,20.50
2018-04-27T09:34:05.174Z,20.42
2018-04-27T09:35:05.108Z,20.58
2018-04-27T09:36:05.050Z,20.64
2018-04-27T09:37:04.986Z,20.88
2018-04-27T09:38:04.924Z,20.97
2018-04-27T09:39:04.863Z,20.76
2018-04-27T09:40:04.802Z,20.95
2018-04-27T09:41:04.812Z,20.95
2018-04-27T09:42:04.670Z,21.09
2018-04-27T09:43:04.609Z,21.21
2018-04-27T09:44:04.569Z,21.12
2018-04-27T09:45:04.495Z,21.16
2018-04-27T09:46:04.443Z,21.22
2018-04-27T09:47:04.370Z,21.25
2018-04-27T09:48:04.328Z,21.25
2018-04-27T09:49:04.244Z,21.28
2018-04-27T09:50:04.219Z,21.21
2018-04-27T09:51:04.132Z,21.24
2018-04-27T09:52:04.081Z,21.28
2018-04-27T09:53:04.009Z,21.34
2018-04-27T09:54:03.934Z,21.25
2018-04-27T09:55:03.903Z,21.21
2018-04-27T09:56:03.820Z,21.01
2018-04-27T09:57:03.764Z,21.03
2018-04-27T09:58:03.711Z,21.16
2018-04-27T09:59:03.639Z,21.17
2018-04-27T10:00:03.579Z,21.28
2018-04-27T10:01:03.527Z,21.46
2018-04-27T10:02:03.478Z,21.35
2018-04-27T10:03:03.395Z,21.24
2018-04-27T10:04:03.324Z,21.03
2018-04-27T10:05:03.285Z,20.95
2018-04-27T10:06:03.202Z,21.04
2018-04-27T10:07:03.134Z,20.94
2018-04-27T10:08:03.103Z,20.80
2018-04-27T10:09:03.016Z,20.92
2018-04-27T10:10:02.956Z,21.01
2018-04-27T10:11:02.921Z,21.14
2018-04-27T10:12:02.849Z,21.28
2018-04-27T10:13:02.793Z,21.44
2018-04-27T10:14:02.717Z,21.58
2018-04-27T10:15:02.737Z,21.62
2018-04-27T10:16:02.599Z,21.69
2018-04-27T10:17:02.529Z,21.68
2018-04-27T10:18:02.489Z,21.90
2018-04-27T10:19:02.424Z,21.91
2018-04-27T10:20:02.350Z,22.02
2018-04-27T10:21:02.290Z,22.05
2018-04-27T10:22:02.225Z,22.00
2018-04-27T10:23:02.180Z,22.10
2018-04-27T10:24:02.118Z,22.14
2018-04-27T10:25:02.047Z,22.09
2018-04-27T10:26:02.044Z,22.12
2018-04-27T10:27:01.926Z,22.02
2018-04-27T10:28:01.852Z,21.91
2018-04-27T10:29:01.794Z,21.99
2018-04-27T10:30:01.735Z,21.91
2018-04-27T10:31:01.740Z,21.90
2018-04-27T10:32:01.613Z,21.88
2018-04-27T10:33:01.556Z,21.94
2018-04-27T10:34:01.516Z,21.94
2018-04-27T10:35:01.444Z,22.02
2018-04-27T10:36:01.374Z,22.07
2018-04-27T10:37:01.315Z,22.15
2018-04-27T10:38:01.261Z,21.99
2018-04-27T10:39:01.195Z,22.10
2018-04-27T10:40:01.141Z,22.09
2018-04-27T10:41:01.078Z,22.15
2018-04-27T10:42:01.022Z,22.27
2018-04-27T10:43:00.966Z,22.17
2018-04-27T10:44:00.922Z,22.28
2018-04-27T10:45:00.835Z,22.33
2018-04-27T10:46:00.771Z,22.47
2018-04-27T10:47:00.696Z,22.46
2018-04-27T10:48:00.659Z,22.51
2018-04-27T10:49:00.598Z,22.54
2018-04-27T10:50:00.535Z,22.42
2018-04-27T10:51:00.493Z,22.33
2018-04-27T10:52:00.395Z,22.42
2018-04-27T10:53:00.330Z,22.40
2018-04-27T10:54:00.277Z,22.24
2018-04-27T10:55:00.235Z,22.27
2018-04-27T10:56:00.166Z,22.20
2018-04-27T10:57:00.091Z,22.30
2018-04-27T10:58:00.030Z,22.20
2018-04-27T10:58:59.973Z,22.27
2018-04-27T10:59:59.920Z,22.27
2018-04-27T11:00:59.881Z,22.40
2018-04-27T11:01:59.792Z,22.40
2018-04-27T11:02:59.801Z,22.43
2018-04-27T11:03:59.696Z,22.57
2018-04-27T11:04:59.610Z,22.46
2018-04-27T11:05:59.553Z,22.46
2018-04-27T11:06:59.497Z,22.47
2018-04-27T11:07:59.443Z,22.57
2018-04-27T11:08:59.363Z,22.51
2018-04-27T11:09:59.300Z,22.46
2018-04-27T11:10:59.376Z,22.52
2018-04-27T11:11:59.205Z,22.37
2018-04-27T11:12:59.125Z,22.42
2018-04-27T11:13:59.066Z,22.42
2018-04-27T11:14:59.015Z,22.52
2018-04-27T11:15:58.954Z,22.45
2018-04-27T11:16:59.000Z,22.57
2018-04-27T11:17:58.835Z,22.57
2018-04-27T11:18:58.768Z,22.61
2018-04-27T11:19:58.711Z,22.60
2018-04-27T11:20:58.638Z,22.52
2018-04-27T11:21:58.608Z,22.46
2018-04-27T11:22:58.520Z,22.55
2018-04-27T11:23:58.462Z,22.62
2018-04-27T11:24:58.412Z,22.62
2018-04-27T11:25:58.336Z,22.60
2018-04-27T11:26:58.291Z,22.60
2018-04-27T11:27:58.232Z,22.70
2018-04-27T11:28:58.167Z,22.73
2018-04-27T11:29:58.107Z,22.60
2018-04-27T11:30:58.035Z,22.65
2018-04-27T11:31:57.998Z,22.70
2018-04-27T11:32:57.911Z,22.58
2018-04-27T11:33:57.880Z,22.68
2018-04-27T11:34:57.814Z,22.62
2018-04-27T11:35:57.731Z,22.64
2018-04-27T11:36:57.685Z,22.67
2018-04-27T11:37:57.607Z,22.65
2018-04-27T11:38:57.561Z,22.80
2018-04-27T11:39:57.509Z,22.80
2018-04-27T11:40:57.425Z,22.80
2018-04-27T11:41:57.370Z,22.79
2018-04-27T11:42:57.338Z,22.82
2018-04-27T11:43:57.262Z,22.77
2018-04-27T11:44:57.226Z,22.85
2018-04-27T11:45:57.122Z,22.83
2018-04-27T11:46:57.063Z,22.82
2018-04-27T11:47:57.015Z,22.88
2018-04-27T11:48:56.956Z,22.85
2018-04-27T11:49:56.895Z,22.95
2018-04-27T11:50:56.831Z,22.85
2018-04-27T11:51:56.779Z,22.72
2018-04-27T11:52:56.721Z,22.72
2018-04-27T11:53:56.653Z,22.77
2018-04-27T11:54:56.588Z,22.88
2018-04-27T11:55:56.532Z,22.85
2018-04-27T11:56:56.473Z,22.83
2018-04-27T11:57:56.404Z,22.86
2018-04-27T11:58:56.348Z,22.97
2018-04-27T11:59:56.293Z,22.98
2018-04-27T12:00:56.221Z,22.95
2018-04-27T12:01:56.160Z,22.98
2018-04-27T12:02:56.087Z,23.05
2018-04-27T12:03:56.025Z,23.00
2018-04-27T12:04:55.965Z,22.97
2018-04-27T12:05:55.925Z,22.95
2018-04-27T12:06:55.848Z,23.02
2018-04-27T12:07:55.806Z,22.94
2018-04-27T12:08:55.721Z,23.04
2018-04-27T12:09:55.705Z,23.07
2018-04-27T12:10:55.631Z,22.90
2018-04-27T12:11:55.560Z,22.95
2018-04-27T12:12:55.480Z,23.00
2018-04-27T12:13:55.445Z,23.16
2018-04-27T12:14:55.363Z,23.10
2018-04-27T12:15:55.310Z,23.09
2018-04-27T12:16:55.239Z,23.09
2018-04-27T12:17:55.193Z,23.20
2018-04-27T12:18:55.132Z,23.17
2018-04-27T12:19:55.083Z,23.22
2018-04-27T12:20:55.003Z,23.15
2018-04-27T12:21:54.948Z,23.19
2018-04-27T12:22:54.897Z,23.10
2018-04-27T12:23:54.825Z,23.10
2018-04-27T12:24:54.771Z,23.09
2018-04-27T12:25:54.700Z,23.17
2018-04-27T12:26:54.649Z,23.25
2018-04-27T12:27:54.589Z,23.13
2018-04-27T12:28:54.510Z,23.22
2018-04-27T12:29:54.449Z,23.19
2018-04-27T12:30:54.576Z,23.19
2018-04-27T12:31:54.397Z,23.20
2018-04-27T12:32:54.282Z,23.32
2018-04-27T12:33:54.230Z,23.15
2018-04-27T12:34:54.186Z,23.28
2018-04-27T12:35:54.099Z,23.33
2018-04-27T12:36:54.016Z,23.31
2018-04-27T12:37:53.971Z,23.38
2018-04-27T12:38:53.929Z,23.46
2018-04-27T12:39:53.849Z,23.46
2018-04-27T12:40:53.776Z,23.39
2018-04-27T12:41:53.730Z,23.43
2018-04-27T12:42:53.672Z,23.53
2018-04-27T12:43:53.611Z,23.46
2018-04-27T12:44:53.530Z,23.48
2018-04-27T12:45:53.473Z,23.48
2018-04-27T12:46:53.409Z,23.51
2018-04-27T12:47:53.369Z,23.51
2018-04-27T12:48:53.297Z,23.51
2018-04-27T12:49:53.224Z,23.51
2018-04-27T12:50:53.197Z,23.53
2018-04-27T12:51:53.131Z,23.48